Lunes, 01 de Septiembre del 2014

portal contactenos mapa del sitio buscar Revisar Correo Corporativo

|Reporte METAR por Reginal » ||Reporte TAF por Reginal » ||Reporte METAR, TAF y SIN覲TICO »

Reporte METAR por Regional

|| La Paz || Santa Cruz || Cochabamba || Beni - Pando ||

Informe METAR emitido cada hora.

Regional La Paz

ESTACIÓN

AEROPUERTO

HORA UTC

DESCRIPCIÓN

SLRY

Reyes

14-18S|67-21W

22:00

SLRY 012200Z 34008KT 9999 NSC 33/21 Q1008 A2978 HR50 CI RWY OPR 1 000M=

SLRQ

Rurrenabaque

14-25S|67-29W

22:00

SLRQ 012200Z 36004KT 9999 NSC 32/25 Q1006 A2972 CI HR68=

SLAP

Apolo

14-44S|68-24W

-

Mensaje no Recibido

SLSB

San Borja

14-51S|66-44W

23:00

SLSB 012300Z 00000KT 8000 NSC 30/22 Q1006 A2973 FU CI HR64 RWY NML=

SLLP

Internaci贸nal El Alto

16-08S|68-10W

23:00

SLLP 012300Z 27009KT 9999 SCT015 FEW017CB SCT070 BKN200 08/01 Q1036 A3059 626.7 CB/LT N/NE/E/SE/NW HR57 NOSIG=

SLCN

Chara帽a

17-35S|69-25W

-

Mensaje no Recibido

SLOR

Oruro

17-57S|67-04W

23:00

SLOR 012300Z 09015KT 8000 VCSH SCT012 FEW017CB OVC070 04/03 Q1034 A3054 655.4 CB/E SH N/NE/E/SE RETSGSRA HR88=

SLUY

Uyuni

20-27S|62-52W

21:00

SLUY 012100Z 36018KT 9999 SCT015 SCT080 14/M04 Q1031 A3046 656.6 AS/CI HR31=

Regional Cochabamba

ESTACIÓN

AEROPUERTO

HORA UTC

DESCRIPCIÓN

SLCB

Cochabamba

17-25S|66-10W

23:00

SLCB 012300Z 23009KT 9999 SCT025 FEW027CB BKN070 20/06 Q1021 A3016 748.5 HR39 CB/NE/E/S/W LT/NE/E/W FU CI NOSIG=

SLSU

Sucre

19-00S|65-17W

23:00

SLSU 012300Z 04010KT 9999 FEW020 FEW030CB SCT200 16/06 Q1024 A3026 HR51 CB/N=

SLPO

Potos铆

19-32S|65-43W

21:00

SLPO 012100Z 24010KT 9999 SCT020 BKN200 13/M00 Q1033 A3050 HR40=

SLAG

Monteagudo

19-49S|63-58W

21:00

SLAG 012100Z 09004KT 9999 NSC 30/18 Q1009 A2980 HR48 FU CI RWY CLSD=

SLVM

Villamontes

21-15S|63-24W

21:00

SLVM 012100Z 36010KT 5000 FU NSC 37/18 Q//// A//// HR33 CI=

SLTJ

Tarija

21-33S|64-42W

23:00

SLTJ 012300Z 00000KT 9999 BKN100 25/12 Q1011 A2986 HR43=

SLYA

Yacuiba

21-57S|63-39W

23:00

SLYA 012300Z 00000KT 8000 SCT070 BKN200 27/16 Q1002 A2961 HR53 FU=

SLBJ

Bermejo

22-46S|64-18W

21:00

SLBJ 012100Z 00000KT 6000 NSC 33/24 Q0998 A2947 HR57 FU CI=

Regional Santa Cruz

ESTACIÓN

AEROPUERTO

HORA UTC

DESCRIPCIÓN

SLAS

Ascenci贸n de Guarayos

15-55S|63-09W

23:00

SLAS 012300Z 33007KT 9999 NSC 31/20 Q1007 A2975 HR51 RWY NML=

SLCP

Concepci贸n

16-08S|62-01W

22:00

SLCP 012200Z 34010KT 7000 NSC 31/18 Q1011 A2985 HR45 FU RWY NML =

SLJV

San Javier

16-16S|62-28W

22:00

SLJV 012200Z 36010KT 9999 NSC 30/19 Q1008 A2977 HR52 FU RWY NML =

SLTI

San Mat铆as

16-20S|58-24W

22:00

SLTI 012200Z 00000KT 7000 NSC 31/24 Q1012 A2988 HR67 FU RWY NML =

SLSI

San Ignacio de Velasco

16-23S|60-57W

23:00

SLSI 012300Z 00000KT 9999 NSC 30/22 Q1008 A2972 HR62 RWY NML=

SLVR

Internaci贸nal Viru Viru

17-38S|63-08W

23:00

SLVR 012300Z 35010KT 9999 FEW017 BKN200 30/18 Q1006 A2971 HR49 NOSIG=

SLET

El Trompillo

17-48S|63-10W

23:00

SLET 012300Z 32014KT 9999 NSC 30/18 Q1005 A2969 HR49 CI NOSIG=

SLJE

San Jos茅 de Chiquitos

17-49S|60-44W

22:00

SLJE 012200Z 00000KT 7000 NSC 32/13 Q1009 A2983 HR48 FU RWY NML =

SLRB

Robor茅

18-19S|59-45W

23:00

SLRB 012300Z 33006KT 9999 NSC 29/24 Q1008 A2977 HR73 FU RWY NML =

SLVG

Valle Grande

18-28S|64-05W

21:00

SLVG 012100Z 35006KT 9999 NSC 21/13 Q1019 A3009 HR60 CS RWY NML =

SLPS

Puerto Su谩rez

18-58S|57-49W

23:00

SLPS 012300Z 09005KT 8000 NSC 29/24 Q1006 A2971 HR72 FU=

SLCA

Camiri

20-00S|63-31W

23:00

SLCA 012300Z 00000KT 8000 TS VCSH SCT036 FEW040CB BKN080 31/17 Q1008 A2977 HR42 CB/TS/LT/SW/W/NW/SH/S/N/NE RWY NML=

Regional Beni

ESTACIÓN

AEROPUERTO

HORA UTC

DESCRIPCIÓN

SLGM

Guayaramer铆n

10-49S|65-20W

23:00

SLGM 012300Z 36006KT 7000 FEW020 FEW023CB BKN200 30/22 Q1008 A2979 HR62 CB SE FU=

SLRI

Riberalta

11-00S|66-04W

23:00

SLRI 012300Z 00000KT 8000 FEW017 FEW020CB BKN200 31/23 Q1009 A2980 HR63 FU CB N/NE/NW=

SLCO

Cobija

11-02S|68-47W

22:00

SLCO 012200Z 34006KT 8000 FEW040 34/21 Q1008 A2978 981.2 HR47 FU=

SLJO

San Joaquin

13-03S|64-39W

22:00

SLJO 012200Z 00000KT 8000 FEW017 33/22 Q1008 A2978 HR52 FU RWY NML=

SLMG

San Magdalena

13-15S|64-03W

23:00

SLMG 012300Z 00000KT 8000 FEW020 32/20 Q1008 A2977 HR50 FU RWY NML=

SLRA

San Ram贸n

13-15S|64-36W

22:00

SLRA 012200Z 12006KT 8000 FEW017 34/22 Q1008 A2979 HR48 FU RWY NML=

SLBU

Baures

13-39S|63-42W

22:00

SLBU 012200Z 35008KT 8000 SCT020 34/22 Q1007 A2976 HR51 FU RWY NML=

SLSA

Santa Ana de Yacuma

13-45S|65-26W

23:00

SLSA 012300Z 32005KT 9999 FEW023 SCT200 31/20 Q1007 A2974 HR53 FU=

SLSR

Santa Rosa

14-04S|66-47W

22:00

SLSR 012200Z 35008KT 9999 NSC 34/27 Q1003 A2963 HR69 RWY NML=

SLTR

Trinidad

14-49S|64-54W

23:00

SLTR 012300Z 32003KT 7000 NSC 31/21 Q1007 A2974 988.5 HR58 FU CI NOSIG=

SLSM

San Ignacio de Moxos

14-57S|65-38W

22:00

SLSM 012200Z 00000KT 9999 NSC 32/21 Q1004 A2967 HR52 RWY NML=